createdAt,value
2023-03-22T05:41:19.523Z,81.74
2023-03-22T05:44:33.883Z,81.74
2023-03-22T05:47:48.419Z,83.36
2023-03-22T05:51:03.618Z,82.39
2023-03-22T05:54:17.929Z,82.09
2023-03-22T05:57:33.861Z,80.43
2023-03-22T06:00:51.719Z,80.10
2023-03-22T06:04:08.206Z,75.80
2023-03-22T06:07:35.501Z,75.92
2023-03-22T06:10:57.681Z,75.20
2023-03-22T06:14:17.719Z,75.97
2023-03-22T06:17:39.909Z,74.22
2023-03-22T06:21:02.630Z,72.41
2023-03-22T06:24:23.209Z,72.56
2023-03-22T06:27:43.425Z,71.75
2023-03-22T06:31:38.959Z,71.96
2023-03-22T06:34:56.841Z,70.05
2023-03-22T06:38:24.746Z,69.34
2023-03-22T06:42:02.931Z,66.55
2023-03-22T06:49:36.471Z,67.65
2023-03-22T06:53:12.511Z,65.49
2023-03-22T06:56:30.502Z,64.49
2023-03-22T06:59:45.457Z,62.42
2023-03-22T07:03:10.498Z,62.52
2023-03-22T07:06:46.916Z,59.80
2023-03-22T07:10:03.467Z,58.71
2023-03-22T07:13:19.896Z,56.28
2023-03-22T07:16:52.486Z,56.19
2023-03-22T07:20:10.277Z,57.03
2023-03-22T07:23:27.140Z,55.75
2023-03-22T07:26:42.723Z,54.07
2023-03-22T07:30:12.677Z,55.44
2023-03-22T07:33:39.168Z,55.07
2023-03-22T07:37:02.019Z,53.47
2023-03-22T07:40:22.143Z,53.65
2023-03-22T07:43:56.852Z,52.34
2023-03-22T07:47:22.125Z,53.21
2023-03-22T07:50:42.517Z,52.46
2023-03-22T07:54:32.143Z,49.93
2023-03-22T07:57:54.517Z,49.32
2023-03-22T08:01:09.882Z,50.69
2023-03-22T08:04:38.047Z,51.73
2023-03-22T08:07:57.098Z,49.49
2023-03-22T08:11:17.971Z,51.91
2023-03-22T08:14:39.917Z,51.91
2023-03-22T08:17:59.008Z,49.76
2023-03-22T08:21:27.828Z,46.81
2023-03-22T08:25:25.382Z,47.77
2023-03-22T08:29:11.387Z,49.16
2023-03-22T08:33:12.091Z,48.95
2023-03-22T08:36:39.385Z,47.22
2023-03-22T08:39:59.759Z,50.14
2023-03-22T08:43:24.634Z,50.46
2023-03-22T08:46:48.581Z,49.14
2023-03-22T08:50:35.608Z,46.93
2023-03-22T08:53:50.653Z,43.55
2023-03-22T08:57:11.772Z,42.59
2023-03-22T09:00:42.247Z,39.96
2023-03-22T09:04:43.168Z,40.96
2023-03-22T09:08:19.633Z,41.73
2023-03-22T09:11:45.040Z,41.41
2023-03-22T09:15:12.976Z,40.43
2023-03-22T09:18:36.728Z,39.76
2023-03-22T09:21:56.864Z,39.44
2023-03-22T09:29:15.862Z,39.07
2023-03-22T09:32:35.354Z,41.88
2023-03-22T09:35:54.075Z,39.54
2023-03-22T09:39:13.528Z,43.43
2023-03-22T09:42:48.163Z,44.50
2023-03-22T09:46:15.895Z,44.03
2023-03-22T09:49:43.635Z,42.03
2023-03-22T09:53:11.151Z,41.26
2023-03-22T09:56:56.990Z,42.21
2023-03-22T10:00:22.692Z,41.49
2023-03-22T10:04:35.050Z,41.63
2023-03-22T10:08:02.484Z,41.49
2023-03-22T10:11:22.808Z,40.11
2023-03-22T10:14:46.965Z,39.16
2023-03-22T10:22:09.346Z,43.69
2023-03-22T10:25:25.589Z,43.36
2023-03-22T10:28:42.378Z,41.43
2023-03-22T10:32:17.508Z,39.53
2023-03-22T10:35:37.146Z,39.31
2023-03-22T10:39:22.226Z,41.39
2023-03-22T10:42:51.428Z,40.39
2023-03-22T10:50:28.218Z,39.89
2023-03-22T10:54:06.083Z,39.87
2023-03-22T10:57:26.321Z,39.21
2023-03-22T11:01:00.655Z,37.92
2023-03-22T11:04:32.228Z,37.76
2023-03-22T11:11:46.877Z,37.29
2023-03-22T11:15:08.950Z,37.52
2023-03-22T11:18:45.944Z,34.58
2023-03-22T11:22:44.424Z,33.44
2023-03-22T11:26:09.606Z,34.32
2023-03-22T11:30:41.366Z,37.57
2023-03-22T11:34:22.760Z,38.10
2023-03-22T11:37:51.570Z,38.15
2023-03-22T11:41:14.487Z,35.58
2023-03-22T11:44:58.522Z,38.76
2023-03-22T11:48:48.446Z,38.22
2023-03-22T11:52:22.628Z,37.46
2023-03-22T11:55:44.335Z,38.36
2023-03-22T11:59:19.881Z,37.79
2023-03-22T12:02:51.434Z,39.46
2023-03-22T12:06:40.065Z,39.75
2023-03-22T12:10:30.172Z,39.83
2023-03-22T12:14:02.517Z,39.08
2023-03-22T12:17:55.604Z,38.96
2023-03-22T12:21:34.294Z,40.54
2023-03-22T12:25:25.236Z,39.35
2023-03-22T12:28:53.897Z,40.94
2023-03-22T12:32:11.310Z,43.31
2023-03-22T12:35:39.819Z,41.81
2023-03-22T12:39:41.627Z,41.95
2023-03-22T12:43:10.779Z,41.87
2023-03-22T12:46:59.583Z,42.42
2023-03-22T12:50:29.503Z,42.41
2023-03-22T12:54:24.153Z,41.25
2023-03-22T12:57:48.239Z,44.47
2023-03-22T13:01:54.628Z,44.99
2023-03-22T13:05:30.293Z,43.93
2023-03-22T13:09:39.256Z,43.69
2023-03-22T13:13:40.531Z,43.18
2023-03-22T13:21:24.793Z,43.45
2023-03-22T13:24:42.825Z,43.35
2023-03-22T13:28:08.461Z,43.42
2023-03-22T13:31:42.941Z,43.82
2023-03-22T13:35:01.062Z,41.92
2023-03-22T13:38:29.726Z,43.07
2023-03-22T13:42:50.714Z,43.00
2023-03-22T13:46:43.033Z,43.14
2023-03-22T13:50:12.976Z,42.53
2023-03-22T13:53:39.063Z,43.89
2023-03-22T13:57:03.112Z,43.25
2023-03-22T14:00:41.923Z,42.41
2023-03-22T14:04:26.845Z,43.66
2023-03-22T14:07:46.098Z,43.53
2023-03-22T14:11:27.035Z,42.25
2023-03-22T14:14:52.036Z,41.82
2023-03-22T14:18:13.951Z,41.24
